sensor_id;sensor_type;location;lat;lon;timestamp;temperature;humidity
15991;DHT22;8100;50.994;4.538;2023-03-31T00:02:14;11.30;99.90
15991;DHT22;8100;50.994;4.538;2023-03-31T00:05:01;11.30;99.90
15991;DHT22;8100;50.994;4.538;2023-03-31T00:07:52;11.20;99.90
15991;DHT22;8100;50.994;4.538;2023-03-31T00:10:44;11.20;99.90
15991;DHT22;8100;50.994;4.538;2023-03-31T00:13:33;11.20;99.90
15991;DHT22;8100;50.994;4.538;2023-03-31T00:16:20;11.20;99.90
15991;DHT22;8100;50.994;4.538;2023-03-31T00:19:09;11.20;99.90
15991;DHT22;8100;50.994;4.538;2023-03-31T00:22:02;11.30;99.90
15991;DHT22;8100;50.994;4.538;2023-03-31T00:24:51;11.40;99.90
15991;DHT22;8100;50.994;4.538;2023-03-31T00:27:41;11.40;99.90
15991;DHT22;8100;50.994;4.538;2023-03-31T00:30:29;11.40;99.90
15991;DHT22;8100;50.994;4.538;2023-03-31T00:33:16;11.40;99.90
15991;DHT22;8100;50.994;4.538;2023-03-31T00:36:03;11.30;99.90
15991;DHT22;8100;50.994;4.538;2023-03-31T00:38:51;11.40;99.90
15991;DHT22;8100;50.994;4.538;2023-03-31T00:41:40;11.30;99.90
15991;DHT22;8100;50.994;4.538;2023-03-31T00:44:29;11.40;99.90
15991;DHT22;8100;50.994;4.538;2023-03-31T00:47:19;11.20;99.90
15991;DHT22;8100;50.994;4.538;2023-03-31T00:50:14;11.30;99.90
15991;DHT22;8100;50.994;4.538;2023-03-31T00:53:07;11.20;99.90
15991;DHT22;8100;50.994;4.538;2023-03-31T00:55:59;11.10;99.90
15991;DHT22;8100;50.994;4.538;2023-03-31T00:58:49;11.10;99.90
15991;DHT22;8100;50.994;4.538;2023-03-31T01:01:39;11.00;99.90
15991;DHT22;8100;50.994;4.538;2023-03-31T01:04:32;11.10;99.90
15991;DHT22;8100;50.994;4.538;2023-03-31T01:07:24;10.90;99.90
15991;DHT22;8100;50.994;4.538;2023-03-31T01:10:13;11.00;99.90
15991;DHT22;8100;50.994;4.538;2023-03-31T01:13:00;11.00;99.90
15991;DHT22;8100;50.994;4.538;2023-03-31T01:15:49;11.00;99.90
15991;DHT22;8100;50.994;4.538;2023-03-31T01:18:36;11.10;99.90
15991;DHT22;8100;50.994;4.538;2023-03-31T01:22:07;11.10;99.90
15991;DHT22;8100;50.994;4.538;2023-03-31T01:25:22;11.10;99.90
15991;DHT22;8100;50.994;4.538;2023-03-31T01:28:20;10.70;99.90
15991;DHT22;8100;50.994;4.538;2023-03-31T01:31:30;10.70;99.90
15991;DHT22;8100;50.994;4.538;2023-03-31T01:38:10;11.00;99.90
15991;DHT22;8100;50.994;4.538;2023-03-31T01:41:31;10.80;99.90
15991;DHT22;8100;50.994;4.538;2023-03-31T01:44:27;11.00;99.90
15991;DHT22;8100;50.994;4.538;2023-03-31T01:47:19;10.60;99.90
15991;DHT22;8100;50.994;4.538;2023-03-31T01:50:17;10.90;99.90
15991;DHT22;8100;50.994;4.538;2023-03-31T01:53:14;10.50;99.90
15991;DHT22;8100;50.994;4.538;2023-03-31T01:56:06;10.70;99.90
15991;DHT22;8100;50.994;4.538;2023-03-31T01:58:59;10.70;99.90
15991;DHT22;8100;50.994;4.538;2023-03-31T02:01:51;10.50;99.90
15991;DHT22;8100;50.994;4.538;2023-03-31T02:04:43;10.80;99.90
15991;DHT22;8100;50.994;4.538;2023-03-31T02:07:34;10.50;99.90
15991;DHT22;8100;50.994;4.538;2023-03-31T02:10:24;10.90;99.90
15991;DHT22;8100;50.994;4.538;2023-03-31T02:13:13;10.50;99.90
15991;DHT22;8100;50.994;4.538;2023-03-31T02:16:05;10.80;99.90
15991;DHT22;8100;50.994;4.538;2023-03-31T02:18:56;10.80;99.90
15991;DHT22;8100;50.994;4.538;2023-03-31T02:21:48;10.60;99.90
15991;DHT22;8100;50.994;4.538;2023-03-31T02:24:36;10.80;99.90
15991;DHT22;8100;50.994;4.538;2023-03-31T02:27:28;10.70;99.90
15991;DHT22;8100;50.994;4.538;2023-03-31T02:30:17;10.60;99.90
15991;DHT22;8100;50.994;4.538;2023-03-31T02:33:06;10.50;99.90
15991;DHT22;8100;50.994;4.538;2023-03-31T02:35:53;10.50;99.90
15991;DHT22;8100;50.994;4.538;2023-03-31T02:38:43;10.80;99.90
15991;DHT22;8100;50.994;4.538;2023-03-31T02:41:32;10.40;99.90
15991;DHT22;8100;50.994;4.538;2023-03-31T02:44:20;10.70;99.90
15991;DHT22;8100;50.994;4.538;2023-03-31T02:47:09;10.40;99.90
15991;DHT22;8100;50.994;4.538;2023-03-31T02:49:59;10.50;99.90
15991;DHT22;8100;50.994;4.538;2023-03-31T02:52:55;10.60;99.90
15991;DHT22;8100;50.994;4.538;2023-03-31T02:56:02;10.70;99.90
15991;DHT22;8100;50.994;4.538;2023-03-31T02:59:17;10.50;99.90
15991;DHT22;8100;50.994;4.538;2023-03-31T03:02:13;10.60;99.90
15991;DHT22;8100;50.994;4.538;2023-03-31T03:05:16;10.20;99.90
15991;DHT22;8100;50.994;4.538;2023-03-31T03:08:11;10.30;99.90
15991;DHT22;8100;50.994;4.538;2023-03-31T03:11:09;10.20;99.90
15991;DHT22;8100;50.994;4.538;2023-03-31T03:14:08;10.10;99.90
15991;DHT22;8100;50.994;4.538;2023-03-31T03:17:03;10.30;99.90
15991;DHT22;8100;50.994;4.538;2023-03-31T03:19:56;10.70;99.90
15991;DHT22;8100;50.994;4.538;2023-03-31T03:22:46;10.60;99.90
15991;DHT22;8100;50.994;4.538;2023-03-31T03:25:33;10.30;99.90
15991;DHT22;8100;50.994;4.538;2023-03-31T03:28:20;10.10;99.90
15991;DHT22;8100;50.994;4.538;2023-03-31T03:31:08;10.70;99.90
15991;DHT22;8100;50.994;4.538;2023-03-31T03:33:55;10.50;99.90
15991;DHT22;8100;50.994;4.538;2023-03-31T03:36:42;10.70;99.90
15991;DHT22;8100;50.994;4.538;2023-03-31T03:39:31;10.10;99.90
15991;DHT22;8100;50.994;4.538;2023-03-31T03:42:18;10.60;99.90
15991;DHT22;8100;50.994;4.538;2023-03-31T03:45:06;10.60;99.90
15991;DHT22;8100;50.994;4.538;2023-03-31T03:47:53;10.30;99.90
15991;DHT22;8100;50.994;4.538;2023-03-31T03:50:41;10.10;99.90
15991;DHT22;8100;50.994;4.538;2023-03-31T03:53:28;10.00;99.90
15991;DHT22;8100;50.994;4.538;2023-03-31T03:56:16;9.90;99.90
15991;DHT22;8100;50.994;4.538;2023-03-31T03:59:04;10.70;99.90
15991;DHT22;8100;50.994;4.538;2023-03-31T04:01:51;10.80;99.90
15991;DHT22;8100;50.994;4.538;2023-03-31T04:04:38;10.50;99.90
15991;DHT22;8100;50.994;4.538;2023-03-31T04:07:25;10.70;99.90
15991;DHT22;8100;50.994;4.538;2023-03-31T04:10:13;10.10;99.90
15991;DHT22;8100;50.994;4.538;2023-03-31T04:13:01;10.80;99.90
15991;DHT22;8100;50.994;4.538;2023-03-31T04:15:48;10.80;99.90
15991;DHT22;8100;50.994;4.538;2023-03-31T04:18:36;10.20;99.90
15991;DHT22;8100;50.994;4.538;2023-03-31T04:21:27;10.40;99.90
15991;DHT22;8100;50.994;4.538;2023-03-31T04:24:15;10.50;99.90
15991;DHT22;8100;50.994;4.538;2023-03-31T04:27:06;10.40;99.90
15991;DHT22;8100;50.994;4.538;2023-03-31T04:29:55;9.60;99.90
15991;DHT22;8100;50.994;4.538;2023-03-31T04:32:42;10.20;99.90
15991;DHT22;8100;50.994;4.538;2023-03-31T04:35:30;9.60;99.90
15991;DHT22;8100;50.994;4.538;2023-03-31T04:38:27;9.80;99.90
15991;DHT22;8100;50.994;4.538;2023-03-31T04:41:19;9.60;99.90
15991;DHT22;8100;50.994;4.538;2023-03-31T04:44:06;9.60;99.90
15991;DHT22;8100;50.994;4.538;2023-03-31T04:46:55;9.90;99.90
15991;DHT22;8100;50.994;4.538;2023-03-31T04:49:43;10.10;99.90
15991;DHT22;8100;50.994;4.538;2023-03-31T04:52:30;9.70;99.90
15991;DHT22;8100;50.994;4.538;2023-03-31T04:55:18;9.90;99.90
15991;DHT22;8100;50.994;4.538;2023-03-31T04:58:05;10.00;99.90
15991;DHT22;8100;50.994;4.538;2023-03-31T05:00:52;9.40;99.90
15991;DHT22;8100;50.994;4.538;2023-03-31T05:03:41;9.40;99.90
15991;DHT22;8100;50.994;4.538;2023-03-31T05:06:28;10.30;99.90
15991;DHT22;8100;50.994;4.538;2023-03-31T05:09:16;10.30;99.90
15991;DHT22;8100;50.994;4.538;2023-03-31T05:12:04;9.50;99.90
15991;DHT22;8100;50.994;4.538;2023-03-31T05:14:51;9.60;99.90
15991;DHT22;8100;50.994;4.538;2023-03-31T05:17:38;10.40;99.90
15991;DHT22;8100;50.994;4.538;2023-03-31T05:20:27;9.80;99.90
15991;DHT22;8100;50.994;4.538;2023-03-31T05:23:14;9.80;99.90
15991;DHT22;8100;50.994;4.538;2023-03-31T05:26:01;10.30;99.90
15991;DHT22;8100;50.994;4.538;2023-03-31T05:28:48;10.70;99.90
15991;DHT22;8100;50.994;4.538;2023-03-31T05:31:36;10.60;99.90
15991;DHT22;8100;50.994;4.538;2023-03-31T05:34:23;10.30;99.90
15991;DHT22;8100;50.994;4.538;2023-03-31T05:37:11;10.90;99.90
15991;DHT22;8100;50.994;4.538;2023-03-31T05:39:59;10.20;99.90
15991;DHT22;8100;50.994;4.538;2023-03-31T05:42:46;10.90;99.90
15991;DHT22;8100;50.994;4.538;2023-03-31T05:45:33;10.60;99.90
15991;DHT22;8100;50.994;4.538;2023-03-31T05:48:21;10.30;99.90
15991;DHT22;8100;50.994;4.538;2023-03-31T05:51:08;10.50;99.90
15991;DHT22;8100;50.994;4.538;2023-03-31T05:53:57;11.00;99.90
15991;DHT22;8100;50.994;4.538;2023-03-31T05:56:44;10.50;99.90
15991;DHT22;8100;50.994;4.538;2023-03-31T05:59:31;10.60;99.90
15991;DHT22;8100;50.994;4.538;2023-03-31T06:02:21;10.70;99.90
15991;DHT22;8100;50.994;4.538;2023-03-31T06:05:08;10.50;99.90
15991;DHT22;8100;50.994;4.538;2023-03-31T06:07:55;10.80;99.90
15991;DHT22;8100;50.994;4.538;2023-03-31T06:10:44;10.70;99.90
15991;DHT22;8100;50.994;4.538;2023-03-31T06:13:33;10.80;99.90
15991;DHT22;8100;50.994;4.538;2023-03-31T06:16:20;10.90;99.90
15991;DHT22;8100;50.994;4.538;2023-03-31T06:19:07;10.80;99.90
15991;DHT22;8100;50.994;4.538;2023-03-31T06:21:55;10.80;99.90
15991;DHT22;8100;50.994;4.538;2023-03-31T06:24:42;10.70;99.90
15991;DHT22;8100;50.994;4.538;2023-03-31T06:27:31;11.00;99.90
15991;DHT22;8100;50.994;4.538;2023-03-31T06:30:18;11.00;99.90
15991;DHT22;8100;50.994;4.538;2023-03-31T06:33:08;11.00;99.90
15991;DHT22;8100;50.994;4.538;2023-03-31T06:35:56;11.10;99.90
15991;DHT22;8100;50.994;4.538;2023-03-31T06:38:44;11.00;99.90
15991;DHT22;8100;50.994;4.538;2023-03-31T06:41:31;11.00;99.90
15991;DHT22;8100;50.994;4.538;2023-03-31T06:44:20;11.10;99.90
15991;DHT22;8100;50.994;4.538;2023-03-31T06:47:08;11.10;99.90
15991;DHT22;8100;50.994;4.538;2023-03-31T06:49:55;11.10;99.90
15991;DHT22;8100;50.994;4.538;2023-03-31T06:52:42;11.20;99.90
15991;DHT22;8100;50.994;4.538;2023-03-31T06:55:30;11.20;99.90
15991;DHT22;8100;50.994;4.538;2023-03-31T06:58:18;11.30;99.90
15991;DHT22;8100;50.994;4.538;2023-03-31T07:01:07;11.40;99.90
15991;DHT22;8100;50.994;4.538;2023-03-31T07:03:56;11.50;99.90
15991;DHT22;8100;50.994;4.538;2023-03-31T07:06:43;11.60;99.90
15991;DHT22;8100;50.994;4.538;2023-03-31T07:09:30;11.70;99.90
15991;DHT22;8100;50.994;4.538;2023-03-31T07:12:18;11.70;99.90
15991;DHT22;8100;50.994;4.538;2023-03-31T07:15:06;11.80;99.90
15991;DHT22;8100;50.994;4.538;2023-03-31T07:17:56;11.80;99.90
15991;DHT22;8100;50.994;4.538;2023-03-31T07:20:47;11.80;99.90
15991;DHT22;8100;50.994;4.538;2023-03-31T07:23:35;11.90;99.90
15991;DHT22;8100;50.994;4.538;2023-03-31T07:26:23;11.90;99.90
15991;DHT22;8100;50.994;4.538;2023-03-31T07:29:11;11.90;99.90
15991;DHT22;8100;50.994;4.538;2023-03-31T07:31:58;12.00;99.90
15991;DHT22;8100;50.994;4.538;2023-03-31T07:34:47;12.00;99.90
15991;DHT22;8100;50.994;4.538;2023-03-31T07:37:34;12.00;99.90
15991;DHT22;8100;50.994;4.538;2023-03-31T07:40:24;12.00;99.90
15991;DHT22;8100;50.994;4.538;2023-03-31T07:43:11;12.00;99.90
15991;DHT22;8100;50.994;4.538;2023-03-31T07:45:59;11.90;99.90
15991;DHT22;8100;50.994;4.538;2023-03-31T07:48:46;11.80;99.90
15991;DHT22;8100;50.994;4.538;2023-03-31T07:51:35;11.70;99.90
15991;DHT22;8100;50.994;4.538;2023-03-31T07:54:22;11.60;99.90
15991;DHT22;8100;50.994;4.538;2023-03-31T07:57:12;11.50;99.90
15991;DHT22;8100;50.994;4.538;2023-03-31T08:00:02;11.50;99.90
15991;DHT22;8100;50.994;4.538;2023-03-31T08:02:51;11.50;99.90
15991;DHT22;8100;50.994;4.538;2023-03-31T08:05:39;11.40;99.90
15991;DHT22;8100;50.994;4.538;2023-03-31T08:08:27;11.40;99.90
15991;DHT22;8100;50.994;4.538;2023-03-31T08:11:15;11.40;99.90
15991;DHT22;8100;50.994;4.538;2023-03-31T08:14:02;11.40;99.90
15991;DHT22;8100;50.994;4.538;2023-03-31T08:16:49;11.40;99.90
15991;DHT22;8100;50.994;4.538;2023-03-31T08:19:40;11.50;99.90
15991;DHT22;8100;50.994;4.538;2023-03-31T08:22:27;11.50;99.90
15991;DHT22;8100;50.994;4.538;2023-03-31T08:25:16;11.50;99.90
15991;DHT22;8100;50.994;4.538;2023-03-31T08:28:03;11.50;99.90
15991;DHT22;8100;50.994;4.538;2023-03-31T08:30:51;11.50;99.90
15991;DHT22;8100;50.994;4.538;2023-03-31T08:33:38;11.60;99.90
15991;DHT22;8100;50.994;4.538;2023-03-31T08:36:26;11.70;99.90
15991;DHT22;8100;50.994;4.538;2023-03-31T08:39:13;11.80;99.90
15991;DHT22;8100;50.994;4.538;2023-03-31T08:42:05;11.80;99.90
15991;DHT22;8100;50.994;4.538;2023-03-31T08:45:00;11.80;99.90
15991;DHT22;8100;50.994;4.538;2023-03-31T08:47:52;11.80;99.90
15991;DHT22;8100;50.994;4.538;2023-03-31T08:50:44;11.80;99.90
15991;DHT22;8100;50.994;4.538;2023-03-31T08:53:36;11.90;99.90
15991;DHT22;8100;50.994;4.538;2023-03-31T08:56:25;12.00;99.90
15991;DHT22;8100;50.994;4.538;2023-03-31T08:59:23;12.10;99.90
15991;DHT22;8100;50.994;4.538;2023-03-31T09:02:18;12.10;99.90
15991;DHT22;8100;50.994;4.538;2023-03-31T09:05:21;12.20;99.90
15991;DHT22;8100;50.994;4.538;2023-03-31T09:08:13;12.20;99.90
15991;DHT22;8100;50.994;4.538;2023-03-31T09:11:09;12.10;99.90
15991;DHT22;8100;50.994;4.538;2023-03-31T09:14:27;12.20;99.90
15991;DHT22;8100;50.994;4.538;2023-03-31T09:17:20;12.10;99.90
15991;DHT22;8100;50.994;4.538;2023-03-31T09:20:14;12.20;99.90
15991;DHT22;8100;50.994;4.538;2023-03-31T09:23:10;12.30;99.90
15991;DHT22;8100;50.994;4.538;2023-03-31T09:26:02;12.40;99.90
15991;DHT22;8100;50.994;4.538;2023-03-31T09:28:51;12.30;99.90
15991;DHT22;8100;50.994;4.538;2023-03-31T09:31:41;12.20;99.90
15991;DHT22;8100;50.994;4.538;2023-03-31T09:34:32;12.30;99.90
15991;DHT22;8100;50.994;4.538;2023-03-31T09:37:21;12.50;99.90
15991;DHT22;8100;50.994;4.538;2023-03-31T09:40:15;12.70;99.90
15991;DHT22;8100;50.994;4.538;2023-03-31T09:43:05;12.80;99.90
15991;DHT22;8100;50.994;4.538;2023-03-31T09:45:55;12.50;99.90
15991;DHT22;8100;50.994;4.538;2023-03-31T09:48:52;12.50;99.90
15991;DHT22;8100;50.994;4.538;2023-03-31T09:51:44;12.40;99.90
15991;DHT22;8100;50.994;4.538;2023-03-31T09:54:36;12.40;99.90
15991;DHT22;8100;50.994;4.538;2023-03-31T09:57:26;12.50;99.90
15991;DHT22;8100;50.994;4.538;2023-03-31T10:00:16;12.50;99.90
15991;DHT22;8100;50.994;4.538;2023-03-31T10:03:04;12.40;99.90
15991;DHT22;8100;50.994;4.538;2023-03-31T10:05:55;12.30;99.90
15991;DHT22;8100;50.994;4.538;2023-03-31T10:08:47;12.10;99.90
15991;DHT22;8100;50.994;4.538;2023-03-31T10:11:36;12.10;99.90
15991;DHT22;8100;50.994;4.538;2023-03-31T10:14:26;12.20;99.90
15991;DHT22;8100;50.994;4.538;2023-03-31T10:17:14;12.30;99.90
15991;DHT22;8100;50.994;4.538;2023-03-31T10:20:11;12.30;99.90
15991;DHT22;8100;50.994;4.538;2023-03-31T10:23:14;12.10;99.90
15991;DHT22;8100;50.994;4.538;2023-03-31T10:26:03;12.00;99.90
15991;DHT22;8100;50.994;4.538;2023-03-31T10:28:51;11.80;99.90
15991;DHT22;8100;50.994;4.538;2023-03-31T10:31:40;11.80;99.90
15991;DHT22;8100;50.994;4.538;2023-03-31T10:34:29;11.80;99.90
15991;DHT22;8100;50.994;4.538;2023-03-31T10:37:19;11.90;99.90
15991;DHT22;8100;50.994;4.538;2023-03-31T10:40:16;12.00;99.90
15991;DHT22;8100;50.994;4.538;2023-03-31T10:43:13;12.10;99.90
15991;DHT22;8100;50.994;4.538;2023-03-31T10:46:01;12.20;99.90
15991;DHT22;8100;50.994;4.538;2023-03-31T10:48:50;12.30;99.90
15991;DHT22;8100;50.994;4.538;2023-03-31T10:51:47;12.40;99.90
15991;DHT22;8100;50.994;4.538;2023-03-31T10:54:35;12.30;99.90
15991;DHT22;8100;50.994;4.538;2023-03-31T10:57:31;12.30;99.90
15991;DHT22;8100;50.994;4.538;2023-03-31T11:00:26;12.20;99.90
15991;DHT22;8100;50.994;4.538;2023-03-31T11:03:40;12.20;99.90
15991;DHT22;8100;50.994;4.538;2023-03-31T11:06:44;12.30;99.90
15991;DHT22;8100;50.994;4.538;2023-03-31T11:09:43;12.50;99.90
15991;DHT22;8100;50.994;4.538;2023-03-31T11:12:40;12.60;99.90
15991;DHT22;8100;50.994;4.538;2023-03-31T11:15:35;12.60;99.90
15991;DHT22;8100;50.994;4.538;2023-03-31T11:18:38;12.40;99.90
15991;DHT22;8100;50.994;4.538;2023-03-31T11:21:35;12.30;99.90
15991;DHT22;8100;50.994;4.538;2023-03-31T11:24:59;12.40;99.90
15991;DHT22;8100;50.994;4.538;2023-03-31T11:28:25;12.40;99.90
15991;DHT22;8100;50.994;4.538;2023-03-31T11:31:36;12.50;99.90
15991;DHT22;8100;50.994;4.538;2023-03-31T11:34:44;12.60;99.90
15991;DHT22;8100;50.994;4.538;2023-03-31T11:37:52;12.70;99.90
15991;DHT22;8100;50.994;4.538;2023-03-31T11:40:55;12.70;1.00
15991;DHT22;8100;50.994;4.538;2023-03-31T11:43:48;12.80;99.90
15991;DHT22;8100;50.994;4.538;2023-03-31T11:46:39;13.00;99.90
15991;DHT22;8100;50.994;4.538;2023-03-31T11:49:29;13.20;99.90
15991;DHT22;8100;50.994;4.538;2023-03-31T11:52:26;13.40;99.90
15991;DHT22;8100;50.994;4.538;2023-03-31T11:55:18;13.50;99.90
15991;DHT22;8100;50.994;4.538;2023-03-31T11:58:11;13.50;99.90
15991;DHT22;8100;50.994;4.538;2023-03-31T12:01:07;13.70;89.10
15991;DHT22;8100;50.994;4.538;2023-03-31T12:04:00;13.50;50.90
15991;DHT22;8100;50.994;4.538;2023-03-31T12:06:49;13.20;46.80
15991;DHT22;8100;50.994;4.538;2023-03-31T12:09:47;13.00;58.60
15991;DHT22;8100;50.994;4.538;2023-03-31T12:12:41;13.00;99.90
15991;DHT22;8100;50.994;4.538;2023-03-31T12:15:32;13.00;99.90
15991;DHT22;8100;50.994;4.538;2023-03-31T12:18:25;12.70;99.90
15991;DHT22;8100;50.994;4.538;2023-03-31T12:21:15;12.60;99.90
15991;DHT22;8100;50.994;4.538;2023-03-31T12:24:03;12.50;99.90
15991;DHT22;8100;50.994;4.538;2023-03-31T12:26:58;12.30;99.90
15991;DHT22;8100;50.994;4.538;2023-03-31T12:29:54;12.10;99.90
15991;DHT22;8100;50.994;4.538;2023-03-31T12:32:45;12.00;1.00
15991;DHT22;8100;50.994;4.538;2023-03-31T12:35:43;11.60;1.00
15991;DHT22;8100;50.994;4.538;2023-03-31T12:38:40;11.60;1.00
15991;DHT22;8100;50.994;4.538;2023-03-31T12:41:38;11.60;1.00
15991;DHT22;8100;50.994;4.538;2023-03-31T12:44:41;11.60;1.00
15991;DHT22;8100;50.994;4.538;2023-03-31T12:47:40;11.60;1.00
15991;DHT22;8100;50.994;4.538;2023-03-31T12:50:44;11.70;1.00
15991;DHT22;8100;50.994;4.538;2023-03-31T12:53:38;11.90;1.00
15991;DHT22;8100;50.994;4.538;2023-03-31T12:57:01;11.90;1.00
15991;DHT22;8100;50.994;4.538;2023-03-31T13:00:16;11.90;99.90
15991;DHT22;8100;50.994;4.538;2023-03-31T13:03:37;12.00;99.90
15991;DHT22;8100;50.994;4.538;2023-03-31T13:06:56;12.10;99.90
15991;DHT22;8100;50.994;4.538;2023-03-31T13:09:47;12.20;99.90
15991;DHT22;8100;50.994;4.538;2023-03-31T13:12:37;12.10;99.90
15991;DHT22;8100;50.994;4.538;2023-03-31T13:15:26;12.20;78.70
15991;DHT22;8100;50.994;4.538;2023-03-31T13:18:19;12.30;39.20
15991;DHT22;8100;50.994;4.538;2023-03-31T13:21:07;12.30;10.00
15991;DHT22;8100;50.994;4.538;2023-03-31T13:24:00;12.30;1.00
15991;DHT22;8100;50.994;4.538;2023-03-31T13:26:49;12.20;1.00
15991;DHT22;8100;50.994;4.538;2023-03-31T13:29:40;12.20;1.00
15991;DHT22;8100;50.994;4.538;2023-03-31T13:32:28;12.20;1.00
15991;DHT22;8100;50.994;4.538;2023-03-31T13:35:17;12.10;1.00
15991;DHT22;8100;50.994;4.538;2023-03-31T13:38:09;11.80;1.00
15991;DHT22;8100;50.994;4.538;2023-03-31T13:41:28;11.80;4.50
15991;DHT22;8100;50.994;4.538;2023-03-31T13:47:57;11.70;1.00
15991;DHT22;8100;50.994;4.538;2023-03-31T13:51:18;11.60;27.60
15991;DHT22;8100;50.994;4.538;2023-03-31T14:01:31;11.80;52.10
15991;DHT22;8100;50.994;4.538;2023-03-31T14:04:36;11.90;29.90
15991;DHT22;8100;50.994;4.538;2023-03-31T14:07:31;11.70;20.40
15991;DHT22;8100;50.994;4.538;2023-03-31T14:10:26;11.80;19.20
15991;DHT22;8100;50.994;4.538;2023-03-31T14:13:17;11.90;27.70
15991;DHT22;8100;50.994;4.538;2023-03-31T14:16:05;12.10;28.50
15991;DHT22;8100;50.994;4.538;2023-03-31T14:19:01;12.20;5.40
15991;DHT22;8100;50.994;4.538;2023-03-31T14:21:58;12.20;1.00
15991;DHT22;8100;50.994;4.538;2023-03-31T14:24:53;12.20;1.00
15991;DHT22;8100;50.994;4.538;2023-03-31T14:27:53;12.20;1.00
15991;DHT22;8100;50.994;4.538;2023-03-31T14:30:52;12.10;1.00
15991;DHT22;8100;50.994;4.538;2023-03-31T14:33:50;12.20;3.00
15991;DHT22;8100;50.994;4.538;2023-03-31T14:36:46;12.30;15.20
15991;DHT22;8100;50.994;4.538;2023-03-31T14:39:40;12.30;13.40
15991;DHT22;8100;50.994;4.538;2023-03-31T14:42:31;12.10;17.40
15991;DHT22;8100;50.994;4.538;2023-03-31T14:45:24;12.00;11.00
15991;DHT22;8100;50.994;4.538;2023-03-31T14:48:16;12.00;37.00
15991;DHT22;8100;50.994;4.538;2023-03-31T14:51:08;11.90;55.30
15991;DHT22;8100;50.994;4.538;2023-03-31T14:53:58;11.70;69.40
15991;DHT22;8100;50.994;4.538;2023-03-31T14:56:48;11.70;65.10
15991;DHT22;8100;50.994;4.538;2023-03-31T14:59:37;11.90;84.60
15991;DHT22;8100;50.994;4.538;2023-03-31T15:02:30;11.90;91.30
15991;DHT22;8100;50.994;4.538;2023-03-31T15:05:25;11.90;91.00
15991;DHT22;8100;50.994;4.538;2023-03-31T15:08:17;11.90;62.30
15991;DHT22;8100;50.994;4.538;2023-03-31T15:11:09;11.90;38.00
15991;DHT22;8100;50.994;4.538;2023-03-31T15:13:59;12.00;43.70
15991;DHT22;8100;50.994;4.538;2023-03-31T15:16:49;11.80;97.60
15991;DHT22;8100;50.994;4.538;2023-03-31T15:19:36;11.70;99.90
15991;DHT22;8100;50.994;4.538;2023-03-31T15:22:25;11.60;99.90
15991;DHT22;8100;50.994;4.538;2023-03-31T15:25:13;11.70;99.90
15991;DHT22;8100;50.994;4.538;2023-03-31T15:28:04;11.80;99.90
15991;DHT22;8100;50.994;4.538;2023-03-31T15:30:52;11.80;99.90
15991;DHT22;8100;50.994;4.538;2023-03-31T15:33:40;11.80;99.90
15991;DHT22;8100;50.994;4.538;2023-03-31T15:36:29;11.80;99.90
15991;DHT22;8100;50.994;4.538;2023-03-31T15:39:17;11.90;99.90
15991;DHT22;8100;50.994;4.538;2023-03-31T15:42:06;12.00;76.00
15991;DHT22;8100;50.994;4.538;2023-03-31T15:44:56;12.00;53.00
15991;DHT22;8100;50.994;4.538;2023-03-31T15:47:50;12.10;32.00
15991;DHT22;8100;50.994;4.538;2023-03-31T15:50:38;12.10;53.70
15991;DHT22;8100;50.994;4.538;2023-03-31T15:53:34;11.80;78.00
15991;DHT22;8100;50.994;4.538;2023-03-31T15:56:28;11.90;73.30
15991;DHT22;8100;50.994;4.538;2023-03-31T15:59:21;11.90;85.60
15991;DHT22;8100;50.994;4.538;2023-03-31T16:02:16;11.80;94.60
15991;DHT22;8100;50.994;4.538;2023-03-31T16:05:04;11.60;99.90
15991;DHT22;8100;50.994;4.538;2023-03-31T16:07:51;11.50;99.90
15991;DHT22;8100;50.994;4.538;2023-03-31T16:10:39;11.40;99.90
15991;DHT22;8100;50.994;4.538;2023-03-31T16:13:28;11.30;99.90
15991;DHT22;8100;50.994;4.538;2023-03-31T16:16:20;11.20;1.00
15991;DHT22;8100;50.994;4.538;2023-03-31T16:19:09;10.80;1.00
15991;DHT22;8100;50.994;4.538;2023-03-31T16:21:58;10.50;99.90
15991;DHT22;8100;50.994;4.538;2023-03-31T16:24:47;10.50;99.90
15991;DHT22;8100;50.994;4.538;2023-03-31T16:27:38;10.50;99.90
15991;DHT22;8100;50.994;4.538;2023-03-31T16:30:33;10.50;99.90
15991;DHT22;8100;50.994;4.538;2023-03-31T16:33:22;10.40;99.90
15991;DHT22;8100;50.994;4.538;2023-03-31T16:36:11;10.50;99.90
15991;DHT22;8100;50.994;4.538;2023-03-31T16:39:01;10.30;99.90
15991;DHT22;8100;50.994;4.538;2023-03-31T16:41:50;10.50;99.90
15991;DHT22;8100;50.994;4.538;2023-03-31T16:44:37;10.30;99.90
15991;DHT22;8100;50.994;4.538;2023-03-31T16:47:24;10.30;99.90
15991;DHT22;8100;50.994;4.538;2023-03-31T16:50:11;10.40;99.90
15991;DHT22;8100;50.994;4.538;2023-03-31T16:53:01;10.50;99.90
15991;DHT22;8100;50.994;4.538;2023-03-31T16:55:49;10.60;99.90
15991;DHT22;8100;50.994;4.538;2023-03-31T16:58:37;10.50;99.90
15991;DHT22;8100;50.994;4.538;2023-03-31T17:01:24;10.20;99.90
15991;DHT22;8100;50.994;4.538;2023-03-31T17:04:12;10.20;99.90
15991;DHT22;8100;50.994;4.538;2023-03-31T17:06:59;10.20;99.90
15991;DHT22;8100;50.994;4.538;2023-03-31T17:09:48;10.30;99.90
15991;DHT22;8100;50.994;4.538;2023-03-31T17:12:36;10.30;99.90
15991;DHT22;8100;50.994;4.538;2023-03-31T17:15:23;10.30;99.90
15991;DHT22;8100;50.994;4.538;2023-03-31T17:18:10;10.40;99.90
15991;DHT22;8100;50.994;4.538;2023-03-31T17:21:02;10.40;99.90
15991;DHT22;8100;50.994;4.538;2023-03-31T17:23:51;10.30;99.90
15991;DHT22;8100;50.994;4.538;2023-03-31T17:26:39;10.40;99.90
15991;DHT22;8100;50.994;4.538;2023-03-31T17:29:26;10.20;99.90
15991;DHT22;8100;50.994;4.538;2023-03-31T17:32:14;10.10;99.90
15991;DHT22;8100;50.994;4.538;2023-03-31T17:35:02;10.10;99.90
15991;DHT22;8100;50.994;4.538;2023-03-31T17:37:51;10.20;99.90
15991;DHT22;8100;50.994;4.538;2023-03-31T17:40:40;10.20;99.90
15991;DHT22;8100;50.994;4.538;2023-03-31T17:43:29;10.30;99.90
15991;DHT22;8100;50.994;4.538;2023-03-31T17:46:16;10.20;99.90
15991;DHT22;8100;50.994;4.538;2023-03-31T17:49:04;10.20;99.90
15991;DHT22;8100;50.994;4.538;2023-03-31T17:51:52;10.30;99.90
15991;DHT22;8100;50.994;4.538;2023-03-31T17:54:39;10.20;99.90
15991;DHT22;8100;50.994;4.538;2023-03-31T17:57:26;10.20;99.90
15991;DHT22;8100;50.994;4.538;2023-03-31T18:00:16;10.20;99.90
15991;DHT22;8100;50.994;4.538;2023-03-31T18:03:04;10.10;99.90
15991;DHT22;8100;50.994;4.538;2023-03-31T18:05:51;10.10;99.90
15991;DHT22;8100;50.994;4.538;2023-03-31T18:08:39;10.00;99.90
15991;DHT22;8100;50.994;4.538;2023-03-31T18:11:27;10.00;99.90
15991;DHT22;8100;50.994;4.538;2023-03-31T18:14:16;10.00;99.90
15991;DHT22;8100;50.994;4.538;2023-03-31T18:17:04;10.00;99.90
15991;DHT22;8100;50.994;4.538;2023-03-31T18:19:52;10.30;99.90
15991;DHT22;8100;50.994;4.538;2023-03-31T18:22:39;10.30;99.90
15991;DHT22;8100;50.994;4.538;2023-03-31T18:25:26;9.90;99.90
15991;DHT22;8100;50.994;4.538;2023-03-31T18:28:15;9.90;99.90
15991;DHT22;8100;50.994;4.538;2023-03-31T18:31:03;9.80;99.90
15991;DHT22;8100;50.994;4.538;2023-03-31T18:33:52;9.90;99.90
15991;DHT22;8100;50.994;4.538;2023-03-31T18:36:40;10.30;99.90
15991;DHT22;8100;50.994;4.538;2023-03-31T18:39:27;9.80;99.90